Altus Air Force Base
KLTS : now visible

Airfield :











YOU CAN JOIN US ON...

 
LOGIN :

Register | Disclaimer

   EN    FR    IT 

 









Legend :    VFR   Marginal VFR   IFR   Intensive IFR   Very Intensive IFR
Visi :
Ceiling :
>= 8 km
>= 3000ft
5 to 8 km
1000 to 3000 ft
1500m to 5 km
500 to 1000 ft
800 to 1500m
200 to 500 ft
< 800m
< 200 ft
Symbols :   Thunderstorms  Fog  Heavy snow  Heavy precipitations  Wind > 20 kt






- Airport Elevation : 1382 ft


KLTS - Altus Air Force Base

CURRENT METAR :
  • 280656Z AUTO 14011KT 10SM CLR 21/13 A2982 RMK AO2 VIS 2 1/4 RWY18R SLP083 T02060133 $

EXPIRED METARs :
  • 280556Z AUTO 13012KT 10SM CLR 21/13 A2983 RMK AO2 VIS 2 1/2 RWY18R SLP086 T02140133 10330 20214 403390097 58005 $
  • 280456Z AUTO 14013KT 10SM CLR 23/13 A2984 RMK AO2 VIS 2 RWY18R SLP090 T02290131 $

Expired Forecast.
KZFW FIR / North America



MET'MAP, your aeronautical weather chart ! - Copyright ORBIFLY December 2007 - Disclaimer

ORBIFLY MET'MAP TEAM :

Programming & Development : Alexandra Zaïnal
Original concept : Baudouin d'Aumeries
Technical & hardware support : Manuel Goepfert
Assistance : Marc-Olivier Méhu

Contact : metmap@orbifly.com




SOURCES & CREDITS :

   NOAA       Earth
Advisory